createdAt,value
2018-10-06T00:00:06.054Z,8.60
2018-10-06T00:02:34.477Z,8.60
2018-10-06T00:05:02.060Z,8.60
2018-10-06T00:07:29.621Z,8.60
2018-10-06T00:09:57.612Z,8.60
2018-10-06T00:12:25.165Z,8.60
2018-10-06T00:14:52.685Z,8.60
2018-10-06T00:17:20.245Z,8.60
2018-10-06T00:19:47.781Z,8.50
2018-10-06T00:22:15.369Z,8.40
2018-10-06T00:24:42.891Z,8.50
2018-10-06T00:27:10.405Z,8.50
2018-10-06T00:29:38.030Z,8.50
2018-10-06T00:32:05.567Z,8.50
2018-10-06T00:34:33.130Z,8.50
2018-10-06T00:37:00.635Z,8.50
2018-10-06T00:39:28.183Z,8.50
2018-10-06T00:41:55.722Z,8.50
2018-10-06T00:44:23.291Z,8.50
2018-10-06T00:46:50.892Z,8.50
2018-10-06T00:49:18.515Z,8.50
2018-10-06T00:51:46.063Z,8.50
2018-10-06T00:54:13.626Z,8.50
2018-10-06T00:56:41.286Z,8.50
2018-10-06T00:59:08.826Z,8.50
2018-10-06T01:01:36.365Z,8.50
2018-10-06T01:04:03.921Z,8.50
2018-10-06T01:06:31.502Z,8.50
2018-10-06T01:08:59.072Z,8.50
2018-10-06T01:11:26.608Z,8.40
2018-10-06T01:13:54.405Z,8.40
2018-10-06T01:16:21.945Z,8.40
2018-10-06T01:18:49.500Z,8.40
2018-10-06T01:21:17.046Z,8.40
2018-10-06T01:23:44.574Z,8.40
2018-10-06T01:26:12.173Z,8.40
2018-10-06T01:28:39.679Z,8.30
2018-10-06T01:31:07.245Z,8.30
2018-10-06T01:33:34.771Z,8.30
2018-10-06T01:36:02.332Z,8.20
2018-10-06T01:38:29.850Z,8.20
2018-10-06T01:40:57.406Z,8.20
2018-10-06T01:43:24.930Z,8.20
2018-10-06T01:45:52.473Z,8.20
2018-10-06T01:48:19.969Z,8.20
2018-10-06T01:50:47.698Z,8.20
2018-10-06T01:53:15.291Z,8.20
2018-10-06T01:55:42.841Z,8.20
2018-10-06T01:58:10.382Z,8.10
2018-10-06T02:00:37.977Z,8.10
2018-10-06T02:03:05.607Z,8.20
2018-10-06T02:05:33.166Z,8.10
2018-10-06T02:08:00.720Z,8.10
2018-10-06T02:10:28.292Z,8.10
2018-10-06T02:12:55.843Z,8.20
2018-10-06T02:15:23.459Z,8.20
2018-10-06T02:17:51.026Z,8.20
2018-10-06T02:20:18.596Z,8.20
2018-10-06T02:22:46.116Z,8.10
2018-10-06T02:25:13.730Z,8.10
2018-10-06T02:27:41.268Z,8.00
2018-10-06T02:30:08.869Z,8.00
2018-10-06T02:32:36.375Z,8.00
2018-10-06T02:35:03.937Z,7.90
2018-10-06T02:37:31.509Z,8.00
2018-10-06T02:39:59.093Z,8.00
2018-10-06T02:42:26.697Z,8.00
2018-10-06T02:44:54.217Z,8.00
2018-10-06T02:47:21.782Z,8.00
2018-10-06T02:49:49.297Z,8.00
2018-10-06T02:52:16.837Z,8.00
2018-10-06T02:54:44.412Z,8.00
2018-10-06T02:57:11.927Z,8.00
2018-10-06T02:59:39.452Z,7.90
2018-10-06T03:02:07.206Z,7.90
2018-10-06T03:04:34.730Z,7.90
2018-10-06T03:07:02.230Z,8.00
2018-10-06T03:09:29.790Z,7.90
2018-10-06T03:11:57.300Z,7.90
2018-10-06T03:14:24.835Z,7.90
2018-10-06T03:16:52.370Z,7.90
2018-10-06T03:19:19.878Z,7.90
2018-10-06T03:21:47.411Z,7.90
2018-10-06T03:24:14.994Z,7.90
2018-10-06T03:26:42.577Z,7.90
2018-10-06T03:29:10.124Z,7.80
2018-10-06T03:31:37.641Z,7.90
2018-10-06T03:34:05.194Z,7.80
2018-10-06T03:36:32.734Z,7.90
2018-10-06T03:39:00.305Z,8.00
2018-10-06T03:41:27.836Z,8.50
2018-10-06T03:43:55.379Z,9.00
2018-10-06T03:46:22.921Z,9.40
2018-10-06T03:48:50.481Z,9.70
2018-10-06T03:51:18.030Z,10.00
2018-10-06T03:53:45.609Z,10.10
2018-10-06T03:56:13.163Z,10.30
2018-10-06T03:58:40.767Z,10.40
2018-10-06T04:01:08.355Z,10.60
2018-10-06T04:03:35.909Z,10.70
2018-10-06T04:06:03.608Z,10.80
2018-10-06T04:08:31.121Z,10.80
2018-10-06T04:10:58.683Z,10.70
2018-10-06T04:13:26.290Z,10.70
2018-10-06T04:15:53.805Z,10.80
2018-10-06T04:18:21.318Z,10.80
2018-10-06T04:20:48.837Z,10.90
2018-10-06T04:23:16.368Z,10.90
2018-10-06T04:25:43.955Z,11.00
2018-10-06T04:28:11.495Z,10.90
2018-10-06T04:30:39.097Z,10.90
2018-10-06T04:33:06.614Z,10.90
2018-10-06T04:35:34.179Z,10.80
2018-10-06T04:38:01.761Z,10.80
2018-10-06T04:40:29.287Z,10.80
2018-10-06T04:42:56.814Z,10.90
2018-10-06T04:45:24.340Z,10.90
2018-10-06T04:47:51.861Z,10.90
2018-10-06T04:50:19.425Z,10.90
2018-10-06T04:52:46.975Z,10.90
2018-10-06T04:55:14.548Z,11.00
2018-10-06T04:57:42.115Z,10.90
2018-10-06T05:00:09.624Z,10.80
2018-10-06T05:02:37.206Z,10.70
2018-10-06T05:05:04.749Z,10.60
2018-10-06T05:07:32.315Z,10.70
2018-10-06T05:09:59.844Z,10.90
2018-10-06T05:12:27.393Z,11.00
2018-10-06T05:14:54.944Z,11.30
2018-10-06T05:17:22.511Z,11.40
2018-10-06T05:19:50.033Z,11.30
2018-10-06T05:22:17.568Z,11.10
2018-10-06T05:24:45.093Z,11.10
2018-10-06T05:27:12.628Z,11.20
2018-10-06T05:29:40.161Z,11.30
2018-10-06T05:32:07.688Z,11.50
2018-10-06T05:34:35.189Z,11.70
2018-10-06T05:37:02.735Z,11.80
2018-10-06T05:39:30.235Z,11.70
2018-10-06T05:41:57.772Z,11.50
2018-10-06T05:44:25.302Z,11.30
2018-10-06T05:46:52.852Z,11.10
2018-10-06T05:49:26.546Z,10.80
2018-10-06T05:52:00.299Z,10.50
2018-10-06T05:54:34.038Z,10.30
2018-10-06T05:57:08.010Z,10.10
2018-10-06T05:59:35.574Z,9.90
2018-10-06T06:02:03.190Z,9.80
2018-10-06T06:04:30.788Z,9.70
2018-10-06T06:06:58.288Z,9.60
2018-10-06T06:09:25.842Z,9.50
2018-10-06T06:11:53.387Z,9.30
2018-10-06T06:14:20.929Z,9.30
2018-10-06T06:16:48.455Z,9.40
2018-10-06T06:19:16.030Z,9.40
2018-10-06T06:21:43.664Z,9.50
2018-10-06T06:24:11.159Z,9.50
2018-10-06T06:26:38.703Z,9.60
2018-10-06T06:29:06.263Z,9.60
2018-10-06T06:31:33.792Z,9.60
2018-10-06T06:34:01.367Z,9.60
2018-10-06T06:36:28.883Z,9.70
2018-10-06T06:38:56.451Z,9.70
2018-10-06T06:41:24.003Z,9.70
2018-10-06T06:43:51.539Z,9.60
2018-10-06T06:46:19.095Z,9.60
2018-10-06T06:48:46.753Z,9.50
2018-10-06T06:51:14.421Z,9.40
2018-10-06T06:53:41.951Z,9.40
2018-10-06T06:56:09.483Z,9.60
2018-10-06T06:58:37.118Z,9.60
2018-10-06T07:01:04.750Z,9.80
2018-10-06T07:03:32.335Z,9.90
2018-10-06T07:05:59.911Z,10.00
2018-10-06T07:08:27.435Z,10.20
2018-10-06T07:10:54.968Z,10.30
2018-10-06T07:13:22.515Z,10.40
2018-10-06T07:15:50.096Z,10.50
2018-10-06T07:18:17.628Z,10.50
2018-10-06T07:20:45.238Z,10.60
2018-10-06T07:23:12.801Z,10.70
2018-10-06T07:25:40.449Z,10.70
2018-10-06T07:28:07.892Z,10.80
2018-10-06T07:30:35.447Z,10.90
2018-10-06T07:33:02.990Z,11.00
2018-10-06T07:35:30.581Z,11.10
2018-10-06T07:37:58.157Z,11.30
2018-10-06T07:40:25.706Z,11.40
2018-10-06T07:42:53.269Z,11.50
2018-10-06T07:45:20.849Z,11.50
2018-10-06T07:47:48.455Z,11.50
2018-10-06T07:50:16.029Z,11.50
2018-10-06T07:52:43.624Z,11.60
2018-10-06T07:55:11.199Z,11.70
2018-10-06T07:57:38.876Z,11.90
2018-10-06T08:00:06.555Z,12.10
2018-10-06T08:02:34.108Z,12.20
2018-10-06T08:05:01.745Z,12.30
2018-10-06T08:07:29.278Z,12.50
2018-10-06T08:09:56.806Z,12.60
2018-10-06T08:12:24.352Z,12.70
2018-10-06T08:14:51.872Z,12.70
2018-10-06T08:17:19.437Z,12.80
2018-10-06T08:19:47.012Z,12.80
2018-10-06T08:22:14.585Z,12.90
2018-10-06T08:24:42.238Z,12.90
2018-10-06T08:27:09.789Z,12.90
2018-10-06T08:29:37.386Z,13.00
2018-10-06T08:32:04.911Z,13.10
2018-10-06T08:34:32.478Z,13.10
2018-10-06T08:37:00.036Z,13.20
2018-10-06T08:39:27.618Z,13.30
2018-10-06T08:41:55.223Z,13.40
2018-10-06T08:44:22.778Z,13.40
2018-10-06T08:46:50.334Z,13.60
2018-10-06T08:49:17.865Z,13.70
2018-10-06T08:51:45.435Z,13.70
2018-10-06T08:54:12.991Z,13.80
2018-10-06T08:56:40.543Z,13.90
2018-10-06T08:59:08.088Z,14.00
2018-10-06T09:01:35.702Z,14.10
2018-10-06T09:04:03.287Z,14.20
2018-10-06T09:06:30.825Z,14.30
2018-10-06T09:08:58.385Z,14.50
2018-10-06T09:11:26.009Z,14.60
2018-10-06T09:13:53.546Z,14.80
2018-10-06T09:16:21.102Z,14.90
2018-10-06T09:18:48.642Z,15.00
2018-10-06T09:21:16.237Z,15.20
2018-10-06T09:23:43.831Z,15.30
2018-10-06T09:26:11.421Z,15.40
2018-10-06T09:28:39.003Z,15.50
2018-10-06T09:31:06.591Z,15.70
2018-10-06T09:33:34.120Z,15.80
2018-10-06T09:36:01.703Z,16.00
2018-10-06T09:38:29.229Z,16.20
2018-10-06T09:40:56.793Z,16.30
2018-10-06T09:43:24.292Z,16.40
2018-10-06T09:45:52.192Z,16.70
2018-10-06T09:48:19.781Z,16.80
2018-10-06T09:50:47.322Z,17.00
2018-10-06T09:53:14.872Z,17.20
2018-10-06T09:55:42.419Z,17.40
2018-10-06T09:58:10.019Z,17.60
2018-10-06T10:00:43.123Z,17.80
2018-10-06T10:03:16.105Z,18.00
2018-10-06T10:05:47.384Z,18.10
2018-10-06T10:08:14.955Z,18.30
2018-10-06T10:10:42.456Z,18.40
2018-10-06T10:13:10.024Z,18.60
2018-10-06T10:15:37.567Z,18.80
2018-10-06T10:18:05.328Z,18.90
2018-10-06T10:20:32.818Z,19.10
2018-10-06T10:23:00.701Z,19.20
2018-10-06T10:25:28.300Z,19.40
2018-10-06T10:27:55.847Z,19.60
2018-10-06T10:30:23.410Z,19.80
2018-10-06T10:32:50.963Z,20.00
2018-10-06T10:35:18.570Z,20.30
2018-10-06T10:37:46.193Z,20.60
2018-10-06T10:40:13.748Z,20.80
2018-10-06T10:42:41.326Z,21.00
2018-10-06T10:45:08.921Z,21.20
2018-10-06T10:47:36.475Z,21.30
2018-10-06T10:50:04.089Z,21.30
2018-10-06T10:52:31.668Z,21.40
2018-10-06T10:54:59.496Z,21.50
2018-10-06T10:57:27.264Z,21.60
2018-10-06T10:59:54.976Z,21.70
2018-10-06T11:02:22.386Z,21.80
2018-10-06T11:04:49.996Z,22.00
2018-10-06T11:07:17.512Z,22.20
2018-10-06T11:09:45.102Z,22.30
2018-10-06T11:12:12.637Z,22.40
2018-10-06T11:14:40.224Z,22.50
2018-10-06T11:17:07.842Z,22.50
2018-10-06T11:19:35.464Z,22.50
2018-10-06T11:22:03.002Z,22.40
2018-10-06T11:24:30.581Z,22.40
2018-10-06T11:26:58.120Z,22.50
2018-10-06T11:29:25.717Z,22.70
2018-10-06T11:31:53.247Z,22.90
2018-10-06T11:34:20.792Z,23.00
2018-10-06T11:36:48.355Z,23.10
2018-10-06T11:39:15.959Z,23.20
2018-10-06T11:41:43.546Z,23.30
2018-10-06T11:44:11.121Z,23.50
2018-10-06T11:46:38.675Z,23.50
2018-10-06T11:49:06.247Z,23.50
2018-10-06T11:51:33.809Z,23.40
2018-10-06T11:54:01.434Z,23.40
2018-10-06T11:56:29.045Z,23.30
2018-10-06T11:58:56.604Z,23.30
2018-10-06T12:01:24.121Z,23.30
2018-10-06T12:03:51.659Z,23.60
2018-10-06T12:06:19.256Z,23.90
2018-10-06T12:08:46.803Z,24.40
2018-10-06T12:11:14.360Z,24.90
2018-10-06T12:13:41.943Z,25.10
2018-10-06T12:16:09.517Z,25.40
2018-10-06T12:18:37.081Z,25.80
2018-10-06T12:21:04.682Z,26.10
2018-10-06T12:23:32.262Z,26.30
2018-10-06T12:25:59.876Z,26.50
2018-10-06T12:28:27.417Z,26.50
2018-10-06T12:30:55.005Z,26.70
2018-10-06T12:33:22.579Z,26.70
2018-10-06T12:35:50.148Z,26.90
2018-10-06T12:38:17.836Z,27.20
2018-10-06T12:40:45.416Z,27.40
2018-10-06T12:43:13.020Z,27.50
2018-10-06T12:45:40.525Z,27.60
2018-10-06T12:48:08.096Z,27.70
2018-10-06T12:50:35.673Z,27.50
2018-10-06T12:53:03.269Z,27.00
2018-10-06T12:55:30.852Z,26.50
2018-10-06T12:57:58.406Z,26.00
2018-10-06T13:00:25.977Z,25.60
2018-10-06T13:02:53.548Z,25.20
2018-10-06T13:05:21.073Z,24.80
2018-10-06T13:07:48.731Z,24.60
2018-10-06T13:10:16.310Z,24.40
2018-10-06T13:12:43.841Z,24.20
2018-10-06T13:15:11.380Z,24.10
2018-10-06T13:17:38.974Z,24.00
2018-10-06T13:20:06.617Z,23.90
2018-10-06T13:22:34.179Z,23.90
2018-10-06T13:25:01.774Z,24.00
2018-10-06T13:27:29.330Z,24.40
2018-10-06T13:29:56.879Z,24.90
2018-10-06T13:32:24.432Z,25.50
2018-10-06T13:34:52.021Z,25.80
2018-10-06T13:37:19.550Z,26.20
2018-10-06T13:39:47.136Z,26.50
2018-10-06T13:42:14.764Z,26.70
2018-10-06T13:44:42.507Z,26.90
2018-10-06T13:47:10.093Z,27.00
2018-10-06T13:49:37.647Z,27.00
2018-10-06T13:52:05.295Z,27.00
2018-10-06T13:54:32.860Z,26.90
2018-10-06T13:57:00.499Z,26.80
2018-10-06T13:59:28.069Z,26.80
2018-10-06T14:01:55.638Z,26.90
2018-10-06T14:04:23.205Z,27.00
2018-10-06T14:06:50.766Z,27.00
2018-10-06T14:09:18.341Z,27.00
2018-10-06T14:11:45.919Z,27.20
2018-10-06T14:14:13.442Z,27.50
2018-10-06T14:16:41.002Z,27.70
2018-10-06T14:19:08.623Z,28.00
2018-10-06T14:21:36.190Z,28.20
2018-10-06T14:24:03.753Z,28.40
2018-10-06T14:26:31.387Z,28.40
2018-10-06T14:28:58.887Z,28.40
2018-10-06T14:31:26.447Z,28.40
2018-10-06T14:33:54.153Z,28.30
2018-10-06T14:36:21.736Z,28.30
2018-10-06T14:38:49.297Z,28.30
2018-10-06T14:41:17.444Z,28.40
2018-10-06T14:43:45.039Z,28.40
2018-10-06T14:46:12.603Z,28.40
2018-10-06T14:48:40.155Z,28.40
2018-10-06T14:51:07.694Z,28.40
2018-10-06T14:53:35.257Z,28.20
2018-10-06T14:56:02.830Z,28.00
2018-10-06T14:58:30.460Z,27.70
2018-10-06T15:00:58.059Z,27.40
2018-10-06T15:03:25.608Z,27.00
2018-10-06T15:05:53.249Z,26.70
2018-10-06T15:08:20.762Z,26.50
2018-10-06T15:10:48.337Z,26.50
2018-10-06T15:13:15.920Z,26.60
2018-10-06T15:15:43.466Z,26.70
2018-10-06T15:18:11.006Z,26.80
2018-10-06T15:20:39.089Z,26.90
2018-10-06T15:23:07.036Z,27.10
2018-10-06T15:25:34.772Z,27.20
2018-10-06T15:28:02.404Z,27.30
2018-10-06T15:30:29.924Z,27.40
2018-10-06T15:32:57.473Z,27.30
2018-10-06T15:35:25.025Z,27.20
2018-10-06T15:37:52.633Z,27.10
2018-10-06T15:40:20.207Z,27.10
2018-10-06T15:42:47.803Z,27.00
2018-10-06T15:45:15.335Z,26.90
2018-10-06T15:47:43.001Z,26.50
2018-10-06T15:50:10.589Z,26.00
2018-10-06T15:52:38.131Z,25.50
2018-10-06T15:55:05.791Z,25.00
2018-10-06T15:57:33.388Z,24.50
2018-10-06T16:00:00.962Z,24.10
2018-10-06T16:02:28.543Z,23.70
2018-10-06T16:04:56.124Z,23.30
2018-10-06T16:07:23.690Z,23.00
2018-10-06T16:09:51.234Z,22.60
2018-10-06T16:12:18.877Z,22.40
2018-10-06T16:14:46.886Z,22.10
2018-10-06T16:17:14.461Z,21.80
2018-10-06T16:19:42.477Z,21.50
2018-10-06T16:22:10.159Z,21.20
2018-10-06T16:24:37.693Z,21.00
2018-10-06T16:27:05.338Z,20.80
2018-10-06T16:29:32.947Z,20.60
2018-10-06T16:32:00.556Z,20.30
2018-10-06T16:34:28.137Z,20.10
2018-10-06T16:36:55.734Z,19.90
2018-10-06T16:39:23.285Z,19.70
2018-10-06T16:41:50.862Z,19.50
2018-10-06T16:44:18.420Z,19.30
2018-10-06T16:46:46.011Z,19.10
2018-10-06T16:49:13.575Z,18.90
2018-10-06T16:51:41.148Z,18.70
2018-10-06T16:54:08.693Z,18.50
2018-10-06T16:56:36.313Z,18.40
2018-10-06T16:59:03.927Z,18.30
2018-10-06T17:01:31.503Z,18.20
2018-10-06T17:03:59.136Z,18.00
2018-10-06T17:06:26.756Z,17.90
2018-10-06T17:08:54.305Z,17.80
2018-10-06T17:11:21.866Z,17.60
2018-10-06T17:13:49.410Z,17.50
2018-10-06T17:16:16.966Z,17.40
2018-10-06T17:18:44.508Z,17.20
2018-10-06T17:23:39.590Z,17.00
2018-10-06T17:26:07.163Z,16.90
2018-10-06T17:28:34.700Z,16.80
2018-10-06T17:31:02.375Z,16.70
2018-10-06T17:33:29.977Z,16.60
2018-10-06T17:35:57.615Z,16.50
2018-10-06T17:38:25.931Z,16.40
2018-10-06T17:40:53.570Z,16.30
2018-10-06T17:43:21.264Z,16.20
2018-10-06T17:45:48.901Z,16.10
2018-10-06T17:48:16.571Z,16.00
2018-10-06T17:50:44.370Z,15.90
2018-10-06T17:53:11.862Z,15.80
2018-10-06T17:55:39.496Z,15.80
2018-10-06T17:58:07.316Z,15.80
2018-10-06T18:03:02.548Z,15.70
2018-10-06T18:05:30.292Z,15.70
2018-10-06T18:07:58.031Z,15.60
2018-10-06T18:10:25.649Z,15.50
2018-10-06T18:12:53.330Z,15.40
2018-10-06T18:15:21.970Z,15.40
2018-10-06T18:17:49.642Z,15.40
2018-10-06T18:20:18.310Z,15.30
2018-10-06T18:22:45.939Z,15.20
2018-10-06T18:25:13.591Z,15.10
2018-10-06T18:27:41.284Z,15.10
2018-10-06T18:30:08.891Z,15.10
2018-10-06T18:32:36.551Z,15.00
2018-10-06T18:35:04.257Z,15.00
2018-10-06T18:37:31.952Z,14.90
2018-10-06T18:39:59.699Z,14.90
2018-10-06T18:42:28.177Z,14.80
2018-10-06T18:44:55.831Z,14.80
2018-10-06T18:47:23.471Z,14.70
2018-10-06T18:49:51.092Z,14.60
2018-10-06T18:52:18.844Z,14.60
2018-10-06T18:54:46.729Z,14.50
2018-10-06T18:57:14.366Z,14.50
2018-10-06T18:59:42.277Z,14.50
2018-10-06T19:02:10.277Z,14.40
2018-10-06T19:04:38.229Z,14.40
2018-10-06T19:07:06.233Z,14.30
2018-10-06T19:09:34.261Z,14.30
2018-10-06T19:12:02.325Z,14.30
2018-10-06T19:14:30.405Z,14.20
2018-10-06T19:16:58.426Z,14.20
2018-10-06T19:19:26.464Z,14.20
2018-10-06T19:21:54.735Z,14.10
2018-10-06T19:24:22.719Z,14.10
2018-10-06T19:26:50.992Z,14.10
2018-10-06T19:29:19.574Z,14.10
2018-10-06T19:31:47.856Z,14.10
2018-10-06T19:34:15.881Z,14.00
2018-10-06T19:36:43.874Z,14.00
2018-10-06T19:39:11.868Z,14.00
2018-10-06T19:41:40.732Z,14.00
2018-10-06T19:44:08.808Z,13.90
2018-10-06T19:46:36.987Z,13.90
2018-10-06T19:49:05.099Z,13.90
2018-10-06T19:51:33.367Z,13.90
2018-10-06T19:54:01.401Z,13.90
2018-10-06T19:56:29.494Z,13.90
2018-10-06T19:58:57.606Z,13.90
2018-10-06T20:01:25.644Z,14.00
2018-10-06T20:03:53.651Z,14.00
2018-10-06T20:06:21.679Z,14.00
2018-10-06T20:08:49.705Z,13.90
2018-10-06T20:11:17.755Z,13.90
2018-10-06T20:13:45.822Z,13.90
2018-10-06T20:16:14.780Z,14.00
2018-10-06T20:18:42.867Z,14.00
2018-10-06T20:21:10.881Z,14.00
2018-10-06T20:23:38.818Z,14.00
2018-10-06T20:26:07.162Z,14.10
2018-10-06T20:28:34.912Z,14.10
2018-10-06T20:31:03.396Z,14.10
2018-10-06T20:33:31.754Z,14.00
2018-10-06T20:35:59.463Z,14.00
2018-10-06T20:38:27.196Z,14.00
2018-10-06T20:40:54.959Z,14.10
2018-10-06T20:43:22.664Z,14.10
2018-10-06T20:45:50.354Z,14.00
2018-10-06T20:48:18.081Z,14.10
2018-10-06T20:50:45.763Z,14.00
2018-10-06T20:53:13.524Z,14.10
2018-10-06T20:55:41.441Z,14.00
2018-10-06T20:58:09.131Z,14.10
2018-10-06T21:00:36.881Z,14.10
2018-10-06T21:03:04.821Z,14.10
2018-10-06T21:05:32.687Z,14.10
2018-10-06T21:08:00.466Z,14.10
2018-10-06T21:10:28.259Z,14.30
2018-10-06T21:12:59.013Z,14.50
2018-10-06T21:15:26.771Z,14.80
2018-10-06T21:17:54.472Z,14.80
2018-10-06T21:20:22.223Z,14.80
2018-10-06T21:22:49.874Z,15.00
2018-10-06T21:25:17.567Z,15.20
2018-10-06T21:27:45.284Z,15.40
2018-10-06T21:30:12.975Z,15.60
2018-10-06T21:32:40.675Z,15.70
2018-10-06T21:35:08.459Z,15.70
2018-10-06T21:37:36.053Z,15.50
2018-10-06T21:40:03.689Z,15.40
2018-10-06T21:42:31.303Z,15.20
2018-10-06T21:44:59.207Z,15.10
2018-10-06T21:47:26.829Z,14.90
2018-10-06T21:49:54.378Z,14.80
2018-10-06T21:52:21.924Z,14.70
2018-10-06T21:54:49.488Z,14.60
2018-10-06T21:57:17.116Z,14.50
2018-10-06T21:59:44.646Z,14.50
2018-10-06T22:02:12.201Z,14.40
2018-10-06T22:04:39.761Z,14.30
2018-10-06T22:07:07.353Z,14.30
2018-10-06T22:09:34.901Z,14.20
2018-10-06T22:12:02.535Z,14.10
2018-10-06T22:14:30.146Z,14.10
2018-10-06T22:16:57.736Z,14.00
2018-10-06T22:19:25.356Z,14.00
2018-10-06T22:21:52.894Z,14.00
2018-10-06T22:26:56.323Z,14.00
2018-10-06T22:29:23.849Z,14.00
2018-10-06T22:31:51.395Z,13.90
2018-10-06T22:34:18.980Z,13.90
2018-10-06T22:36:46.532Z,13.90
2018-10-06T22:39:14.121Z,14.00
2018-10-06T22:41:41.661Z,13.90
2018-10-06T22:44:09.208Z,13.90
2018-10-06T22:46:36.748Z,13.90
2018-10-06T22:49:04.418Z,13.90
2018-10-06T22:51:32.130Z,13.90
2018-10-06T22:53:59.814Z,13.90
2018-10-06T22:56:27.550Z,13.90
2018-10-06T22:58:55.170Z,13.90
2018-10-06T23:01:22.682Z,13.90
2018-10-06T23:03:50.213Z,13.90
2018-10-06T23:06:17.769Z,13.90
2018-10-06T23:08:45.346Z,13.90
2018-10-06T23:11:12.888Z,13.90
2018-10-06T23:13:40.434Z,13.90
2018-10-06T23:16:07.993Z,13.90
2018-10-06T23:18:35.686Z,13.90
2018-10-06T23:21:05.001Z,13.80
2018-10-06T23:23:32.769Z,13.80
2018-10-06T23:26:00.443Z,13.80
2018-10-06T23:28:28.020Z,13.80
2018-10-06T23:30:55.560Z,13.80
2018-10-06T23:33:23.103Z,13.80
2018-10-06T23:35:50.680Z,13.80
2018-10-06T23:38:18.254Z,13.80
2018-10-06T23:40:45.833Z,13.80
2018-10-06T23:43:13.392Z,13.90
2018-10-06T23:45:40.963Z,13.90
2018-10-06T23:48:08.506Z,13.90
2018-10-06T23:50:36.064Z,13.90
2018-10-06T23:53:03.626Z,13.90
2018-10-06T23:55:31.241Z,13.90
2018-10-06T23:57:58.886Z,13.90
